createdAt,value
2022-08-17T00:00:42.987Z,9.85
2022-08-17T00:03:17.254Z,21.52
2022-08-17T00:05:58.032Z,14.77
2022-08-17T00:08:32.624Z,24.08
2022-08-17T00:11:01.461Z,14.27
2022-08-17T00:13:35.822Z,13.48
2022-08-17T00:16:07.957Z,16.20
2022-08-17T00:19:04.164Z,16.40
2022-08-17T00:21:25.305Z,13.02
2022-08-17T00:23:54.383Z,19.45
2022-08-17T00:26:43.701Z,16.67
2022-08-17T00:29:19.933Z,13.70
2022-08-17T00:31:49.032Z,18.90
2022-08-17T00:34:17.213Z,19.33
2022-08-17T00:36:52.420Z,12.98
2022-08-17T00:39:20.244Z,16.92
2022-08-17T00:41:48.060Z,14.60
2022-08-17T00:44:16.638Z,15.15
2022-08-17T00:46:44.871Z,16.20
2022-08-17T00:49:14.754Z,13.98
2022-08-17T00:51:56.561Z,9.52
2022-08-17T00:54:31.645Z,12.68
2022-08-17T00:57:04.412Z,12.80
2022-08-17T00:59:37.655Z,12.27
2022-08-17T01:02:07.018Z,11.27
2022-08-17T01:04:35.679Z,13.50
2022-08-17T01:07:04.503Z,14.88
2022-08-17T01:09:33.468Z,14.50
2022-08-17T01:12:01.581Z,14.00
2022-08-17T01:14:29.408Z,11.43
2022-08-17T01:16:57.351Z,13.90
2022-08-17T01:19:35.914Z,17.63
2022-08-17T01:22:09.544Z,19.13
2022-08-17T01:24:40.765Z,18.42
2022-08-17T01:27:10.913Z,16.77
2022-08-17T01:29:42.366Z,19.23
2022-08-17T01:32:10.220Z,14.88
2022-08-17T01:34:43.009Z,18.08
2022-08-17T01:37:15.387Z,16.13
2022-08-17T01:39:47.675Z,13.75
2022-08-17T01:42:42.337Z,17.85
2022-08-17T01:45:18.212Z,18.88
2022-08-17T01:47:46.587Z,16.52
2022-08-17T01:50:17.486Z,14.75
2022-08-17T01:52:47.040Z,16.00
2022-08-17T01:55:16.705Z,14.07
2022-08-17T01:57:45.773Z,11.70
2022-08-17T02:00:14.447Z,14.68
2022-08-17T02:02:42.856Z,11.13
2022-08-17T02:05:10.731Z,11.80
2022-08-17T02:08:00.483Z,17.40
2022-08-17T02:10:34.095Z,11.43
2022-08-17T02:13:03.707Z,8.43
2022-08-17T02:15:32.260Z,9.63
2022-08-17T02:18:01.556Z,13.27
2022-08-17T02:20:42.089Z,10.75
2022-08-17T02:23:12.245Z,12.82
2022-08-17T02:25:43.479Z,12.52
2022-08-17T02:28:30.268Z,18.70
2022-08-17T02:31:03.255Z,9.98
2022-08-17T02:33:42.911Z,14.43
2022-08-17T02:36:13.473Z,13.38
2022-08-17T02:38:42.426Z,14.93
2022-08-17T02:41:10.472Z,13.25
2022-08-17T02:43:38.272Z,13.27
2022-08-17T02:46:06.184Z,13.50
2022-08-17T02:48:34.360Z,7.82
2022-08-17T02:51:02.162Z,9.55
2022-08-17T02:53:33.660Z,11.15
2022-08-17T02:56:04.387Z,10.55
2022-08-17T02:58:34.913Z,15.82
2022-08-17T03:01:08.348Z,19.50
2022-08-17T03:06:05.169Z,10.82
2022-08-17T03:08:33.029Z,12.30
2022-08-17T03:11:00.825Z,10.02
2022-08-17T03:13:30.909Z,13.07
2022-08-17T03:15:58.876Z,17.83
2022-08-17T03:18:28.143Z,11.65
2022-08-17T03:21:00.385Z,15.38
2022-08-17T03:23:29.431Z,13.43
2022-08-17T03:25:59.425Z,12.95
2022-08-17T03:28:28.333Z,16.80
2022-08-17T03:30:56.182Z,16.40
2022-08-17T03:33:24.028Z,15.50
2022-08-17T03:35:52.274Z,17.45
2022-08-17T03:38:20.610Z,18.20
2022-08-17T03:40:57.225Z,15.82
2022-08-17T03:43:29.074Z,27.23
2022-08-17T03:46:33.890Z,25.98
2022-08-17T03:49:26.453Z,21.48
2022-08-17T03:52:14.354Z,20.45
2022-08-17T03:55:01.558Z,20.92
2022-08-17T03:57:32.164Z,21.90
2022-08-17T04:00:00.142Z,25.70
2022-08-17T04:02:31.286Z,26.75
2022-08-17T04:04:59.710Z,27.20
2022-08-17T04:07:31.927Z,33.30
2022-08-17T04:09:59.933Z,26.70
2022-08-17T04:12:31.553Z,21.75
2022-08-17T04:14:59.468Z,27.53
2022-08-17T04:17:29.233Z,23.52
2022-08-17T04:19:57.298Z,22.55
2022-08-17T04:22:32.918Z,30.70
2022-08-17T04:25:13.049Z,26.23
2022-08-17T04:27:44.243Z,25.75
2022-08-17T04:30:13.098Z,26.38
2022-08-17T04:33:05.725Z,34.90
2022-08-17T04:35:43.689Z,30.77
2022-08-17T04:38:15.003Z,25.33
2022-08-17T04:41:02.310Z,25.35
2022-08-17T04:43:31.771Z,29.00
2022-08-17T04:46:05.060Z,31.27
2022-08-17T04:48:42.760Z,27.30
2022-08-17T04:51:19.638Z,27.30
2022-08-17T04:53:53.866Z,23.63
2022-08-17T04:56:26.516Z,20.27
2022-08-17T04:58:57.392Z,20.08
2022-08-17T05:01:28.106Z,20.67
2022-08-17T05:03:59.270Z,22.73
2022-08-17T05:06:28.207Z,25.98
2022-08-17T05:08:59.405Z,27.48
2022-08-17T05:11:29.326Z,25.25
2022-08-17T05:14:00.222Z,26.23
2022-08-17T05:16:29.194Z,28.02
2022-08-17T05:18:59.566Z,23.42
2022-08-17T05:21:27.570Z,28.35
2022-08-17T05:23:58.642Z,25.00
2022-08-17T05:26:29.544Z,23.27
2022-08-17T05:29:02.750Z,30.80
2022-08-17T05:31:31.176Z,28.27
2022-08-17T05:33:59.560Z,25.52
2022-08-17T05:36:42.575Z,28.00
2022-08-17T05:39:16.681Z,25.35
2022-08-17T05:41:52.157Z,28.77
2022-08-17T05:44:19.954Z,32.58
2022-08-17T05:46:50.209Z,34.50
2022-08-17T05:49:24.151Z,29.65
2022-08-17T05:52:07.270Z,32.92
2022-08-17T05:55:07.853Z,26.45
2022-08-17T05:57:47.631Z,26.88
2022-08-17T06:00:50.875Z,29.92
2022-08-17T06:03:27.531Z,24.48
2022-08-17T06:06:35.357Z,27.52
2022-08-17T06:09:33.683Z,30.20
2022-08-17T06:12:26.814Z,25.98
2022-08-17T06:15:14.236Z,20.17
2022-08-17T06:17:43.165Z,21.52
2022-08-17T06:20:14.708Z,22.33
2022-08-17T06:22:49.133Z,21.67
2022-08-17T06:25:34.097Z,22.17
2022-08-17T06:28:08.059Z,22.65
2022-08-17T06:30:59.428Z,23.52
2022-08-17T06:36:46.107Z,19.42
2022-08-17T06:39:47.543Z,22.02
2022-08-17T06:43:04.982Z,25.88
2022-08-17T06:45:32.159Z,19.55
2022-08-17T06:48:06.545Z,25.25
2022-08-17T06:51:09.552Z,22.13
2022-08-17T06:54:00.974Z,19.23
2022-08-17T06:56:54.781Z,18.23
2022-08-17T06:59:55.829Z,19.95
2022-08-17T07:02:52.831Z,17.77
2022-08-17T07:05:34.815Z,15.10
2022-08-17T07:08:12.309Z,15.95
2022-08-17T07:10:50.421Z,22.42
2022-08-17T07:13:53.008Z,19.23
2022-08-17T07:19:00.355Z,17.48
2022-08-17T07:21:34.067Z,14.52
2022-08-17T07:24:29.222Z,18.83
2022-08-17T07:27:11.677Z,14.05
2022-08-17T07:29:49.774Z,14.00
2022-08-17T07:32:23.474Z,13.88
2022-08-17T07:35:05.743Z,12.02
2022-08-17T07:37:38.973Z,11.85
2022-08-17T07:40:18.481Z,16.25
2022-08-17T07:43:05.140Z,13.65
2022-08-17T07:46:06.782Z,14.02
2022-08-17T07:48:37.101Z,12.38
2022-08-17T07:51:31.409Z,21.00
2022-08-17T07:54:14.026Z,15.93
2022-08-17T07:56:45.891Z,17.90
2022-08-17T07:59:21.840Z,14.27
2022-08-17T08:01:56.800Z,8.20
2022-08-17T08:07:34.859Z,9.50
2022-08-17T08:10:08.743Z,12.50
2022-08-17T08:13:14.228Z,8.95
2022-08-17T08:15:54.771Z,8.95
2022-08-17T08:18:55.243Z,8.50
2022-08-17T08:21:45.089Z,7.17
2022-08-17T08:24:30.708Z,5.03
2022-08-17T08:27:09.807Z,10.80
2022-08-17T08:29:56.433Z,7.93
2022-08-17T08:33:00.838Z,13.40
2022-08-17T08:35:53.767Z,6.50
2022-08-17T08:38:24.598Z,11.55
2022-08-17T08:40:59.163Z,7.07
2022-08-17T08:43:55.860Z,8.15
2022-08-17T08:46:32.222Z,11.10
2022-08-17T08:50:05.700Z,7.60
2022-08-17T08:52:37.253Z,12.10
2022-08-17T08:55:22.417Z,8.77
2022-08-17T08:58:01.469Z,4.25
2022-08-17T09:00:35.931Z,5.15
2022-08-17T09:03:51.850Z,9.35
2022-08-17T09:06:33.592Z,5.07
2022-08-17T09:09:25.991Z,10.57
2022-08-17T09:12:41.764Z,6.28
2022-08-17T09:15:20.325Z,10.77
2022-08-17T09:18:59.418Z,9.32
2022-08-17T09:20:58.517Z,6.63
2022-08-17T09:23:42.558Z,7.22
2022-08-17T09:26:23.073Z,14.45
2022-08-17T09:28:53.166Z,5.60
2022-08-17T09:31:31.293Z,9.10
2022-08-17T09:34:04.014Z,6.00
2022-08-17T09:36:36.109Z,8.52
2022-08-17T09:39:09.343Z,5.43
2022-08-17T09:42:27.610Z,9.07
2022-08-17T09:45:10.944Z,6.47
2022-08-17T09:48:10.505Z,5.43
2022-08-17T09:51:05.300Z,7.30
2022-08-17T09:53:38.676Z,6.93
2022-08-17T09:56:42.304Z,4.78
2022-08-17T09:59:38.391Z,10.43
2022-08-17T10:02:09.550Z,7.57
2022-08-17T10:05:11.082Z,4.93
2022-08-17T10:07:42.050Z,6.20
2022-08-17T10:10:21.117Z,4.30
2022-08-17T10:13:02.963Z,4.57
2022-08-17T10:15:55.695Z,10.98
2022-08-17T10:19:04.615Z,5.43
2022-08-17T10:22:01.361Z,11.82
2022-08-17T10:25:21.128Z,8.68
2022-08-17T10:27:53.414Z,11.40
2022-08-17T10:30:24.707Z,4.25
2022-08-17T10:32:57.268Z,5.93
2022-08-17T10:35:34.054Z,3.53
2022-08-17T10:38:31.197Z,4.95
2022-08-17T10:41:19.574Z,7.05
2022-08-17T10:44:39.246Z,6.82
2022-08-17T10:47:01.655Z,3.40
2022-08-17T10:49:34.084Z,5.32
2022-08-17T10:52:22.865Z,4.32
2022-08-17T10:54:58.328Z,7.80
2022-08-17T10:57:29.417Z,9.52
2022-08-17T11:00:14.943Z,6.38
2022-08-17T11:02:51.931Z,5.20
2022-08-17T11:05:42.991Z,3.88
2022-08-17T11:08:39.447Z,9.77
2022-08-17T11:11:20.797Z,7.35
2022-08-17T11:14:23.995Z,7.13
2022-08-17T11:17:13.363Z,5.68
2022-08-17T11:19:51.100Z,8.88
2022-08-17T11:22:36.922Z,7.93
2022-08-17T11:25:18.216Z,5.22
2022-08-17T11:27:53.541Z,8.65
2022-08-17T11:30:41.232Z,6.80
2022-08-17T11:33:43.937Z,5.00
2022-08-17T11:36:14.629Z,4.20
2022-08-17T11:39:20.169Z,9.68
2022-08-17T11:42:04.992Z,6.80
2022-08-17T11:44:57.623Z,9.25
2022-08-17T11:51:13.717Z,6.55
2022-08-17T11:53:41.573Z,9.57
2022-08-17T11:56:43.240Z,4.38
2022-08-17T11:59:37.891Z,3.92
2022-08-17T12:02:32.630Z,6.55
2022-08-17T12:05:21.147Z,5.82
2022-08-17T12:08:04.699Z,6.32
2022-08-17T12:10:36.149Z,5.82
2022-08-17T12:13:11.898Z,6.15
2022-08-17T12:15:48.912Z,5.00
2022-08-17T12:18:24.788Z,11.77
2022-08-17T12:21:23.930Z,6.88
2022-08-17T12:24:30.501Z,8.27
2022-08-17T12:27:01.449Z,5.45
2022-08-17T12:29:38.716Z,8.80
2022-08-17T12:32:17.759Z,4.22
2022-08-17T12:34:48.021Z,8.20
2022-08-17T12:37:45.234Z,6.93
2022-08-17T12:40:24.869Z,9.20
2022-08-17T12:43:03.564Z,11.32
2022-08-17T12:45:33.878Z,7.93
2022-08-17T12:48:13.461Z,9.90
2022-08-17T12:50:48.020Z,8.57
2022-08-17T12:53:22.646Z,14.30
2022-08-17T12:55:52.054Z,8.32
2022-08-17T12:58:23.767Z,9.00
2022-08-17T13:01:02.803Z,8.40
2022-08-17T13:03:43.195Z,15.93
2022-08-17T13:06:16.557Z,13.93
2022-08-17T13:08:50.349Z,7.03
2022-08-17T13:11:24.734Z,7.43
2022-08-17T13:14:03.467Z,9.70
2022-08-17T13:16:33.861Z,10.52
2022-08-17T13:19:16.322Z,10.20
2022-08-17T13:24:25.869Z,9.70
2022-08-17T13:27:07.758Z,11.32
2022-08-17T13:29:45.255Z,13.02
2022-08-17T13:32:23.650Z,14.20
2022-08-17T13:35:15.055Z,13.43
2022-08-17T13:38:04.074Z,8.75
2022-08-17T13:40:41.873Z,12.75
2022-08-17T13:43:13.584Z,14.18
2022-08-17T13:45:50.419Z,7.63
2022-08-17T13:48:33.795Z,6.95
2022-08-17T13:51:06.908Z,8.98
2022-08-17T13:53:37.724Z,10.07
2022-08-17T13:56:37.371Z,10.70
2022-08-17T13:59:02.908Z,6.78
2022-08-17T14:01:33.687Z,13.03
2022-08-17T14:04:14.435Z,9.43
2022-08-17T14:06:52.817Z,6.65
2022-08-17T14:09:29.775Z,6.22
2022-08-17T14:12:03.024Z,8.90
2022-08-17T14:14:31.789Z,9.38
2022-08-17T14:17:03.818Z,8.02
2022-08-17T14:19:31.682Z,3.85
2022-08-17T14:21:59.927Z,4.32
2022-08-17T14:24:41.297Z,7.47
2022-08-17T14:27:12.709Z,7.72
2022-08-17T14:29:41.437Z,4.07
2022-08-17T14:32:17.191Z,6.47
2022-08-17T14:34:46.173Z,6.57
2022-08-17T14:37:14.146Z,7.95
2022-08-17T14:39:42.065Z,5.82
2022-08-17T14:42:11.649Z,3.40
2022-08-17T14:44:39.738Z,5.07
2022-08-17T14:47:15.934Z,7.85
2022-08-17T14:49:43.940Z,5.85
2022-08-17T14:52:21.686Z,3.75
2022-08-17T14:54:51.540Z,6.55
2022-08-17T14:57:25.899Z,5.22
2022-08-17T15:00:02.477Z,3.38
2022-08-17T15:02:53.875Z,8.20
2022-08-17T15:05:24.643Z,10.43
2022-08-17T15:07:53.688Z,7.22
2022-08-17T15:10:21.960Z,5.88
2022-08-17T15:12:49.761Z,11.20
2022-08-17T15:15:22.784Z,5.80
2022-08-17T15:17:54.085Z,8.70
2022-08-17T15:20:27.428Z,11.85
2022-08-17T15:22:59.204Z,5.00
2022-08-17T15:25:32.053Z,11.07
2022-08-17T15:28:00.803Z,8.10
2022-08-17T15:30:33.935Z,8.52
2022-08-17T15:33:02.825Z,11.55
2022-08-17T15:35:33.168Z,5.38
2022-08-17T15:38:10.631Z,6.50
2022-08-17T15:40:43.405Z,4.57
2022-08-17T15:43:17.512Z,6.00
2022-08-17T15:45:59.919Z,11.30
2022-08-17T15:48:49.844Z,8.55
2022-08-17T15:51:29.813Z,11.40
2022-08-17T15:54:04.543Z,9.75
2022-08-17T15:56:46.942Z,6.18
2022-08-17T15:59:15.429Z,5.40
2022-08-17T16:03:15.017Z,5.40
2022-08-17T16:04:31.438Z,7.22
2022-08-17T16:07:01.671Z,9.23
2022-08-17T16:09:29.572Z,9.40
2022-08-17T16:11:59.309Z,4.82
2022-08-17T16:14:33.786Z,4.75
2022-08-17T16:17:38.718Z,7.28
2022-08-17T16:19:55.363Z,20.52
2022-08-17T16:22:33.064Z,9.30
2022-08-17T16:25:06.424Z,9.23
2022-08-17T16:27:34.310Z,9.77
2022-08-17T16:30:16.582Z,9.50
2022-08-17T16:32:55.701Z,10.37
2022-08-17T16:35:26.551Z,12.65
2022-08-17T16:37:57.421Z,10.77
2022-08-17T16:40:28.350Z,10.15
2022-08-17T16:42:57.689Z,9.98
2022-08-17T16:45:28.259Z,7.38
2022-08-17T16:47:59.313Z,13.95
2022-08-17T16:50:29.571Z,13.77
2022-08-17T16:53:18.271Z,9.88
2022-08-17T16:55:47.704Z,9.55
2022-08-17T16:58:16.138Z,9.32
2022-08-17T17:00:45.360Z,10.73
2022-08-17T17:03:22.417Z,9.10
2022-08-17T17:06:13.766Z,11.77
2022-08-17T17:08:50.081Z,8.65
2022-08-17T17:11:40.420Z,6.25
2022-08-17T17:14:28.575Z,16.60
2022-08-17T17:17:07.697Z,16.55
2022-08-17T17:19:45.915Z,8.23
2022-08-17T17:22:22.902Z,9.43
2022-08-17T17:25:02.935Z,9.40
2022-08-17T17:27:56.913Z,9.65
2022-08-17T17:30:44.820Z,10.65
2022-08-17T17:33:17.588Z,12.65
2022-08-17T17:35:51.820Z,8.60
2022-08-17T17:38:29.184Z,7.85
2022-08-17T17:41:04.497Z,11.05
2022-08-17T17:43:40.363Z,11.75
2022-08-17T17:46:27.624Z,11.18
2022-08-17T17:48:57.877Z,10.45
2022-08-17T17:52:08.764Z,9.73
2022-08-17T17:54:38.612Z,6.95
2022-08-17T17:57:35.333Z,11.82
2022-08-17T18:00:26.299Z,6.65
2022-08-17T18:03:15.274Z,18.85
2022-08-17T18:06:03.138Z,11.40
2022-08-17T18:08:53.101Z,9.98
2022-08-17T18:11:27.080Z,11.40
2022-08-17T18:14:25.167Z,12.50
2022-08-17T18:16:59.200Z,15.90
2022-08-17T18:19:29.997Z,13.55
2022-08-17T18:22:14.154Z,11.93
2022-08-17T18:24:45.685Z,7.47
2022-08-17T18:27:23.624Z,8.38
2022-08-17T18:29:55.272Z,7.43
2022-08-17T18:32:33.971Z,11.15
2022-08-17T18:35:04.795Z,16.25
2022-08-17T18:37:43.034Z,8.52
2022-08-17T18:40:17.306Z,15.95
2022-08-17T18:42:59.710Z,9.95
2022-08-17T18:45:42.426Z,20.15
2022-08-17T18:48:32.926Z,9.38
2022-08-17T18:51:27.415Z,14.55
2022-08-17T18:54:19.892Z,11.98
2022-08-17T18:56:58.921Z,13.25
2022-08-17T18:59:39.279Z,9.43
2022-08-17T19:02:23.255Z,9.98
2022-08-17T19:05:11.691Z,11.15
2022-08-17T19:07:45.533Z,13.02
2022-08-17T19:10:28.890Z,20.25
2022-08-17T19:13:24.462Z,7.45
2022-08-17T19:16:15.026Z,14.82
2022-08-17T19:19:19.100Z,10.98
2022-08-17T19:21:55.831Z,13.30
2022-08-17T19:24:26.858Z,9.80
2022-08-17T19:27:02.068Z,13.67
2022-08-17T19:29:44.984Z,16.75
2022-08-17T19:32:18.277Z,9.95
2022-08-17T19:34:46.658Z,8.68
2022-08-17T19:37:37.616Z,14.15
2022-08-17T19:40:51.799Z,14.88
2022-08-17T19:43:22.900Z,16.55
2022-08-17T19:45:57.149Z,17.35
2022-08-17T19:48:56.605Z,9.02
2022-08-17T19:51:34.177Z,12.93
2022-08-17T19:54:14.286Z,11.85
2022-08-17T19:57:01.722Z,11.30
2022-08-17T19:59:55.833Z,8.38
2022-08-17T20:02:56.577Z,15.05
2022-08-17T20:05:26.781Z,20.02
2022-08-17T20:08:06.071Z,9.80
2022-08-17T20:10:54.854Z,14.40
2022-08-17T20:13:33.256Z,13.25
2022-08-17T20:16:05.792Z,10.20
2022-08-17T20:18:33.995Z,8.30
2022-08-17T20:21:19.937Z,7.63
2022-08-17T20:24:20.688Z,11.02
2022-08-17T20:26:58.629Z,8.95
2022-08-17T20:29:36.889Z,10.63
2022-08-17T20:32:25.373Z,10.07
2022-08-17T20:35:16.997Z,5.47
2022-08-17T20:38:02.289Z,6.38
2022-08-17T20:40:35.354Z,4.85
2022-08-17T20:43:35.339Z,11.90
2022-08-17T20:46:32.471Z,14.00
2022-08-17T20:49:16.672Z,6.25
2022-08-17T20:52:02.651Z,12.60
2022-08-17T20:54:55.968Z,9.68
2022-08-17T20:57:45.827Z,11.18
2022-08-17T21:00:29.441Z,7.38
2022-08-17T21:05:57.374Z,11.70
2022-08-17T21:08:55.222Z,10.48
2022-08-17T21:11:56.737Z,9.20
2022-08-17T21:14:31.551Z,9.13
2022-08-17T21:17:18.665Z,10.50
2022-08-17T21:20:12.066Z,5.95
2022-08-17T21:22:54.151Z,12.15
2022-08-17T21:25:27.553Z,6.57
2022-08-17T21:28:01.584Z,7.65
2022-08-17T21:30:30.402Z,11.93
2022-08-17T21:33:31.741Z,8.20
2022-08-17T21:36:00.129Z,13.55
2022-08-17T21:38:55.678Z,9.25
2022-08-17T21:41:46.286Z,8.93
2022-08-17T21:44:27.835Z,7.45
2022-08-17T21:47:21.362Z,8.88
2022-08-17T21:49:51.836Z,15.13
2022-08-17T21:52:22.855Z,9.38
2022-08-17T21:54:57.549Z,9.38
2022-08-17T21:57:28.434Z,6.70
2022-08-17T21:59:59.133Z,11.68
2022-08-17T22:02:35.733Z,10.95
2022-08-17T22:05:14.107Z,5.82
2022-08-17T22:07:50.919Z,7.03
2022-08-17T22:10:32.054Z,13.85
2022-08-17T22:13:04.586Z,10.50
2022-08-17T22:15:35.818Z,9.88
2022-08-17T22:18:19.794Z,12.02
2022-08-17T22:20:50.972Z,6.72
2022-08-17T22:24:00.316Z,9.05
2022-08-17T22:27:01.940Z,12.57
2022-08-17T22:29:56.916Z,9.98
2022-08-17T22:32:31.573Z,15.73
2022-08-17T22:35:35.403Z,14.75
2022-08-17T22:38:18.525Z,5.70
2022-08-17T22:40:55.354Z,13.82
2022-08-17T22:43:26.457Z,17.70
2022-08-17T22:45:58.026Z,16.98
2022-08-17T22:48:27.656Z,11.38
2022-08-17T22:51:17.534Z,12.95
2022-08-17T22:54:06.345Z,13.68
2022-08-17T22:56:52.787Z,16.05
2022-08-17T22:59:54.333Z,11.10
2022-08-17T23:02:26.329Z,9.23
2022-08-17T23:05:10.273Z,10.63
2022-08-17T23:07:38.264Z,6.72
2022-08-17T23:10:06.792Z,14.13
2022-08-17T23:12:39.034Z,10.45
2022-08-17T23:15:14.483Z,9.00
2022-08-17T23:17:45.639Z,11.32
2022-08-17T23:20:15.821Z,7.95
2022-08-17T23:22:51.344Z,6.82
2022-08-17T23:25:29.258Z,13.35
2022-08-17T23:28:11.485Z,12.85
2022-08-17T23:30:50.497Z,7.47
2022-08-17T23:33:30.520Z,8.52
2022-08-17T23:35:59.498Z,9.75
2022-08-17T23:38:28.460Z,9.30
2022-08-17T23:40:56.755Z,12.18
2022-08-17T23:43:25.670Z,7.70
2022-08-17T23:45:58.665Z,12.23
2022-08-17T23:48:35.378Z,15.35
2022-08-17T23:51:11.231Z,9.70
2022-08-17T23:53:42.274Z,7.53
2022-08-17T23:56:11.348Z,17.25
2022-08-17T23:58:44.939Z,8.77
